createdAt,value
2024-02-08T00:00:28.857Z,1.45
2024-02-08T00:02:55.738Z,2.47
2024-02-08T00:05:22.457Z,1.92
2024-02-08T00:07:49.169Z,1.55
2024-02-08T00:10:15.567Z,2.50
2024-02-08T00:12:42.946Z,1.73
2024-02-08T00:15:11.176Z,2.22
2024-02-08T00:17:37.672Z,2.30
2024-02-08T00:20:04.495Z,2.22
2024-02-08T00:22:31.280Z,2.55
2024-02-08T00:24:57.718Z,1.65
2024-02-08T00:27:24.251Z,3.67
2024-02-08T00:29:50.959Z,2.50
2024-02-08T00:32:17.401Z,2.13
2024-02-08T00:34:44.343Z,2.53
2024-02-08T00:37:11.082Z,2.78
2024-02-08T00:39:40.722Z,2.58
2024-02-08T00:42:07.036Z,2.20
2024-02-08T00:44:33.932Z,2.33
2024-02-08T00:47:02.144Z,3.05
2024-02-08T00:49:28.786Z,2.35
2024-02-08T00:51:55.413Z,2.58
2024-02-08T00:54:21.773Z,3.17
2024-02-08T00:56:48.341Z,1.98
2024-02-08T00:59:16.825Z,1.90
2024-02-08T01:01:43.530Z,3.03
2024-02-08T01:04:12.149Z,3.22
2024-02-08T01:06:41.864Z,4.30
2024-02-08T01:09:08.945Z,5.15
2024-02-08T01:11:36.212Z,4.20
2024-02-08T01:14:05.817Z,4.15
2024-02-08T01:16:32.719Z,4.15
2024-02-08T01:18:59.870Z,4.15
2024-02-08T01:21:27.509Z,4.38
2024-02-08T01:23:53.940Z,4.68
2024-02-08T01:26:20.298Z,8.18
2024-02-08T01:28:47.033Z,6.60
2024-02-08T01:31:14.965Z,4.68
2024-02-08T01:33:41.516Z,4.30
2024-02-08T01:36:08.197Z,5.68
2024-02-08T01:38:34.538Z,5.63
2024-02-08T01:41:01.835Z,4.82
2024-02-08T01:43:33.037Z,6.13
2024-02-08T01:45:59.497Z,5.70
2024-02-08T01:48:27.027Z,5.47
2024-02-08T01:50:57.365Z,6.38
2024-02-08T01:53:28.747Z,8.88
2024-02-08T01:56:01.440Z,5.78
2024-02-08T01:58:29.261Z,5.28
2024-02-08T02:01:02.475Z,6.70
2024-02-08T02:03:29.161Z,5.72
2024-02-08T02:05:55.620Z,6.90
2024-02-08T02:08:24.802Z,4.65
2024-02-08T02:10:58.874Z,4.88
2024-02-08T02:13:26.229Z,5.47
2024-02-08T02:15:53.295Z,5.10
2024-02-08T02:18:19.978Z,5.80
2024-02-08T02:20:46.598Z,6.18
2024-02-08T02:23:12.976Z,8.00
2024-02-08T02:25:39.984Z,6.10
2024-02-08T02:28:09.046Z,5.80
2024-02-08T02:30:37.044Z,5.38
2024-02-08T02:33:05.265Z,7.43
2024-02-08T02:35:31.723Z,5.90
2024-02-08T02:38:04.575Z,4.35
2024-02-08T02:40:31.993Z,3.45
2024-02-08T02:42:59.284Z,5.45
2024-02-08T02:45:30.633Z,5.15
2024-02-08T02:47:57.814Z,6.00
2024-02-08T02:50:24.943Z,6.50
2024-02-08T02:52:51.932Z,7.22
2024-02-08T02:55:19.332Z,5.32
2024-02-08T02:57:45.936Z,4.85
2024-02-08T03:00:35.175Z,5.43
2024-02-08T03:03:08.705Z,4.90
2024-02-08T03:05:36.566Z,4.25
2024-02-08T03:08:06.311Z,4.25
2024-02-08T03:10:33.986Z,5.75
2024-02-08T03:13:00.854Z,4.93
2024-02-08T03:15:27.384Z,5.68
2024-02-08T03:17:54.222Z,4.43
2024-02-08T03:20:31.013Z,3.90
2024-02-08T03:22:57.987Z,5.00
2024-02-08T03:25:24.646Z,9.82
2024-02-08T03:27:52.842Z,9.90
2024-02-08T03:30:32.789Z,8.50
2024-02-08T03:33:00.061Z,10.57
2024-02-08T03:35:29.163Z,8.40
2024-02-08T03:37:56.746Z,7.60
2024-02-08T03:40:23.533Z,6.45
2024-02-08T03:42:50.398Z,7.93
2024-02-08T03:45:24.799Z,8.68
2024-02-08T03:47:52.220Z,8.48
2024-02-08T03:50:19.103Z,8.45
2024-02-08T03:52:45.891Z,9.80
2024-02-08T03:55:14.193Z,8.88
2024-02-08T03:57:40.846Z,9.05
2024-02-08T04:00:14.512Z,11.90
2024-02-08T04:02:44.919Z,11.10
2024-02-08T04:05:21.395Z,10.80
2024-02-08T04:07:58.386Z,11.45
2024-02-08T04:10:51.840Z,12.70
2024-02-08T04:13:37.952Z,10.40
2024-02-08T04:16:24.900Z,25.30
2024-02-08T04:19:10.009Z,24.25
2024-02-08T04:21:55.034Z,16.40
2024-02-08T04:24:40.091Z,17.35
2024-02-08T04:27:25.236Z,17.58
2024-02-08T04:30:10.550Z,21.35
2024-02-08T04:32:55.916Z,12.20
2024-02-08T04:35:41.195Z,27.55
2024-02-08T04:38:26.407Z,12.00
2024-02-08T04:41:11.952Z,7.85
2024-02-08T04:43:56.963Z,8.35
2024-02-08T04:46:42.899Z,6.88
2024-02-08T04:49:28.234Z,9.45
2024-02-08T04:52:14.889Z,8.27
2024-02-08T04:54:44.684Z,8.80
2024-02-08T04:57:11.238Z,15.10
2024-02-08T04:59:41.671Z,10.68
2024-02-08T05:02:08.287Z,10.50
2024-02-08T05:04:37.812Z,9.07
2024-02-08T05:07:08.079Z,8.23
2024-02-08T05:09:34.862Z,9.07
2024-02-08T05:12:01.877Z,11.15
2024-02-08T05:14:28.452Z,7.13
2024-02-08T05:16:58.012Z,7.30
2024-02-08T05:19:25.206Z,8.35
2024-02-08T05:21:52.409Z,8.85
2024-02-08T05:24:19.158Z,6.50
2024-02-08T05:26:46.841Z,7.47
2024-02-08T05:29:20.982Z,7.68
2024-02-08T05:31:49.595Z,9.30
2024-02-08T05:34:18.516Z,7.50
2024-02-08T05:36:46.776Z,18.92
2024-02-08T05:39:25.845Z,8.93
2024-02-08T05:41:55.024Z,8.43
2024-02-08T05:44:22.049Z,7.88
2024-02-08T05:46:49.352Z,10.32
2024-02-08T05:49:16.730Z,13.25
2024-02-08T05:51:48.086Z,13.00
2024-02-08T05:54:21.479Z,11.38
2024-02-08T05:56:51.051Z,9.48
2024-02-08T05:59:21.462Z,9.60
2024-02-08T06:01:48.802Z,8.73
2024-02-08T06:04:25.765Z,22.08
2024-02-08T06:07:02.572Z,12.23
2024-02-08T06:09:49.724Z,15.02
2024-02-08T06:12:39.766Z,10.32
2024-02-08T06:15:22.284Z,9.43
2024-02-08T06:18:05.940Z,9.88
2024-02-08T06:20:41.459Z,9.40
2024-02-08T06:23:18.951Z,13.80
2024-02-08T06:26:02.487Z,12.82
2024-02-08T06:28:30.424Z,13.88
2024-02-08T06:31:00.381Z,10.90
2024-02-08T06:33:27.375Z,9.45
2024-02-08T06:35:58.261Z,11.88
2024-02-08T06:38:42.349Z,11.40
2024-02-08T06:43:58.229Z,12.80
2024-02-08T06:46:45.545Z,11.68
2024-02-08T06:49:50.798Z,12.95
2024-02-08T06:52:35.923Z,12.95
2024-02-08T06:55:20.840Z,13.52
2024-02-08T06:58:10.835Z,13.68
2024-02-08T07:00:56.492Z,16.63
2024-02-08T07:03:41.683Z,11.27
2024-02-08T07:06:27.337Z,12.95
2024-02-08T07:09:12.609Z,12.60
2024-02-08T07:12:05.116Z,15.55
2024-02-08T07:14:50.282Z,17.40
2024-02-08T07:17:37.171Z,14.88
2024-02-08T07:20:22.662Z,15.45
2024-02-08T07:23:08.189Z,14.77
2024-02-08T07:25:53.726Z,14.38
2024-02-08T07:28:38.918Z,12.30
2024-02-08T07:31:24.198Z,12.77
2024-02-08T07:34:09.541Z,13.40
2024-02-08T07:36:54.767Z,13.18
2024-02-08T07:39:31.773Z,12.82
2024-02-08T07:41:58.311Z,10.95
2024-02-08T07:44:34.086Z,12.90
2024-02-08T07:47:05.405Z,12.05
2024-02-08T07:49:45.410Z,13.75
2024-02-08T07:52:21.696Z,11.80
2024-02-08T07:54:51.957Z,10.25
2024-02-08T07:57:25.915Z,10.07
2024-02-08T07:59:54.597Z,14.00
2024-02-08T08:02:24.946Z,10.43
2024-02-08T08:04:55.202Z,12.20
2024-02-08T08:07:25.283Z,13.98
2024-02-08T08:10:03.948Z,12.80
2024-02-08T08:12:31.054Z,15.88
2024-02-08T08:15:03.468Z,11.25
2024-02-08T08:17:30.470Z,11.13
2024-02-08T08:19:59.871Z,8.23
2024-02-08T08:22:26.508Z,9.02
2024-02-08T08:25:21.913Z,12.00
2024-02-08T08:27:49.066Z,11.73
2024-02-08T08:30:31.782Z,9.77
2024-02-08T08:33:03.246Z,10.30
2024-02-08T08:35:46.881Z,9.63
2024-02-08T08:38:19.898Z,10.40
2024-02-08T08:40:50.251Z,8.70
2024-02-08T08:43:22.412Z,8.27
2024-02-08T08:45:52.755Z,7.35
2024-02-08T08:48:22.319Z,7.18
2024-02-08T08:50:56.471Z,11.75
2024-02-08T08:53:28.406Z,10.07
2024-02-08T08:55:56.840Z,9.02
2024-02-08T08:58:28.749Z,9.10
2024-02-08T09:01:14.402Z,10.73
2024-02-08T09:03:41.558Z,7.78
2024-02-08T09:06:14.340Z,8.00
2024-02-08T09:08:46.872Z,7.57
2024-02-08T09:11:16.579Z,7.30
2024-02-08T09:13:52.658Z,9.05
2024-02-08T09:16:26.259Z,5.25
2024-02-08T09:19:16.590Z,5.68
2024-02-08T09:21:43.958Z,6.43
2024-02-08T09:24:19.114Z,7.53
2024-02-08T09:27:16.588Z,8.25
2024-02-08T09:29:44.025Z,8.00
2024-02-08T09:32:40.252Z,7.22
2024-02-08T09:35:14.398Z,7.85
2024-02-08T09:37:49.430Z,9.23
2024-02-08T09:40:22.536Z,9.75
2024-02-08T09:42:55.895Z,15.50
2024-02-08T09:45:34.080Z,8.63
2024-02-08T09:48:07.290Z,12.13
2024-02-08T09:50:38.245Z,9.13
2024-02-08T09:53:10.074Z,10.10
2024-02-08T09:55:36.980Z,11.48
2024-02-08T09:58:05.961Z,11.07
2024-02-08T10:00:55.711Z,11.02
2024-02-08T10:03:42.737Z,8.95
2024-02-08T10:06:24.364Z,9.07
2024-02-08T10:09:09.361Z,8.88
2024-02-08T10:11:42.157Z,9.77
2024-02-08T10:14:26.202Z,9.82
2024-02-08T10:16:59.806Z,10.82
2024-02-08T10:19:30.330Z,8.00
2024-02-08T10:22:19.485Z,9.77
2024-02-08T10:24:49.803Z,7.43
2024-02-08T10:27:25.724Z,7.28
2024-02-08T10:30:00.471Z,7.32
2024-02-08T10:32:30.462Z,7.57
2024-02-08T10:35:16.464Z,10.55
2024-02-08T10:37:50.804Z,8.30
2024-02-08T10:40:30.579Z,8.60
2024-02-08T10:43:00.333Z,8.32
2024-02-08T10:45:33.268Z,8.77
2024-02-08T10:48:01.044Z,5.20
2024-02-08T10:50:30.917Z,7.30
2024-02-08T10:53:02.058Z,6.68
2024-02-08T10:55:38.531Z,7.45
2024-02-08T10:58:12.574Z,7.43
2024-02-08T11:03:35.071Z,6.88
2024-02-08T11:06:04.591Z,7.45
2024-02-08T11:08:35.451Z,5.68
2024-02-08T11:11:10.938Z,4.00
2024-02-08T11:13:42.244Z,5.18
2024-02-08T11:16:23.043Z,4.53
2024-02-08T11:18:54.652Z,4.07
2024-02-08T11:21:45.465Z,3.85
2024-02-08T11:24:29.092Z,3.03
2024-02-08T11:27:04.427Z,4.32
2024-02-08T11:29:46.987Z,2.40
2024-02-08T11:32:17.553Z,2.83
2024-02-08T11:34:48.167Z,6.78
2024-02-08T11:37:19.525Z,2.42
2024-02-08T11:39:49.043Z,2.30
2024-02-08T11:42:19.399Z,2.20
2024-02-08T11:44:47.099Z,2.40
2024-02-08T11:47:19.765Z,2.22
2024-02-08T11:50:02.754Z,2.10
2024-02-08T11:52:30.829Z,2.70
2024-02-08T11:55:01.774Z,4.85
2024-02-08T11:57:37.939Z,4.10
2024-02-08T12:00:16.925Z,3.53
2024-02-08T12:02:48.269Z,5.03
2024-02-08T12:05:17.091Z,5.75
2024-02-08T12:07:47.629Z,4.72
2024-02-08T12:10:16.281Z,5.45
2024-02-08T12:12:44.137Z,4.93
2024-02-08T12:15:14.364Z,5.97
2024-02-08T12:17:41.753Z,5.32
2024-02-08T12:20:11.908Z,4.45
2024-02-08T12:22:42.573Z,3.85
2024-02-08T12:25:16.784Z,3.75
2024-02-08T12:27:49.554Z,5.00
2024-02-08T12:30:27.322Z,4.88
2024-02-08T12:32:54.213Z,4.70
2024-02-08T12:35:29.065Z,4.25
2024-02-08T12:37:59.616Z,5.10
2024-02-08T12:40:30.567Z,5.63
2024-02-08T12:42:58.071Z,3.78
2024-02-08T12:45:25.359Z,4.28
2024-02-08T12:47:53.150Z,5.22
2024-02-08T12:50:26.791Z,5.00
2024-02-08T12:52:59.044Z,4.28
2024-02-08T12:55:33.147Z,5.55
2024-02-08T12:58:03.071Z,5.22
2024-02-08T13:00:34.496Z,4.85
2024-02-08T13:03:06.680Z,6.45
2024-02-08T13:05:39.838Z,5.43
2024-02-08T13:08:09.946Z,6.72
2024-02-08T13:10:39.738Z,4.57
2024-02-08T13:13:13.736Z,4.95
2024-02-08T13:15:43.384Z,5.07
2024-02-08T13:18:12.863Z,5.80
2024-02-08T13:20:42.875Z,4.35
2024-02-08T13:23:11.195Z,6.90
2024-02-08T13:25:40.234Z,4.82
2024-02-08T13:28:07.108Z,4.85
2024-02-08T13:30:38.013Z,4.82
2024-02-08T13:33:06.707Z,5.10
2024-02-08T13:35:40.751Z,6.60
2024-02-08T13:38:12.196Z,6.15
2024-02-08T13:40:46.001Z,7.43
2024-02-08T13:43:13.885Z,7.78
2024-02-08T13:45:41.480Z,8.20
2024-02-08T13:48:14.255Z,6.40
2024-02-08T13:50:44.879Z,7.43
2024-02-08T13:53:15.707Z,6.95
2024-02-08T13:55:55.987Z,5.78
2024-02-08T13:58:27.366Z,5.65
2024-02-08T14:00:56.651Z,5.88
2024-02-08T14:03:25.077Z,7.25
2024-02-08T14:05:53.941Z,8.57
2024-02-08T14:08:25.949Z,8.57
2024-02-08T14:10:54.920Z,8.70
2024-02-08T14:13:31.192Z,8.68
2024-02-08T14:16:02.213Z,12.88
2024-02-08T14:18:34.210Z,9.98
2024-02-08T14:21:03.652Z,11.25
2024-02-08T14:23:41.813Z,11.55
2024-02-08T14:26:20.673Z,10.45
2024-02-08T14:28:48.166Z,12.15
2024-02-08T14:31:15.452Z,11.07
2024-02-08T14:33:48.821Z,9.18
2024-02-08T14:36:16.160Z,13.90
2024-02-08T14:38:46.240Z,11.35
2024-02-08T14:41:31.787Z,11.15
2024-02-08T14:44:08.160Z,12.30
2024-02-08T14:46:36.190Z,9.05
2024-02-08T14:49:19.088Z,12.25
2024-02-08T14:51:49.410Z,11.43
2024-02-08T14:54:20.041Z,11.27
2024-02-08T14:56:48.003Z,12.88
2024-02-08T14:59:15.197Z,10.95
2024-02-08T15:01:43.858Z,15.02
2024-02-08T15:04:18.229Z,10.82
2024-02-08T15:07:05.408Z,10.13
2024-02-08T15:09:35.533Z,12.27
2024-02-08T15:12:12.047Z,13.75
2024-02-08T15:14:40.954Z,11.20
2024-02-08T15:17:12.186Z,15.02
2024-02-08T15:19:48.986Z,12.50
2024-02-08T15:22:42.829Z,11.13
2024-02-08T15:25:09.338Z,12.07
2024-02-08T15:27:49.320Z,14.38
2024-02-08T15:30:18.200Z,13.57
2024-02-08T15:32:48.709Z,15.88
2024-02-08T15:35:27.915Z,15.35
2024-02-08T15:38:13.315Z,14.45
2024-02-08T15:40:44.926Z,13.05
2024-02-08T15:43:17.163Z,14.75
2024-02-08T15:45:54.447Z,13.88
2024-02-08T15:48:33.116Z,12.20
2024-02-08T15:51:07.324Z,14.95
2024-02-08T15:56:07.119Z,15.20
2024-02-08T15:58:45.861Z,16.02
2024-02-08T16:01:19.337Z,17.23
2024-02-08T16:06:44.180Z,10.93
2024-02-08T16:09:27.815Z,12.48
2024-02-08T16:12:15.594Z,15.65
2024-02-08T16:14:47.845Z,14.32
2024-02-08T16:17:33.002Z,13.68
2024-02-08T16:20:07.370Z,13.60
2024-02-08T16:22:48.738Z,14.35
2024-02-08T16:25:18.166Z,12.63
2024-02-08T16:27:49.410Z,13.48
2024-02-08T16:30:29.425Z,13.35
2024-02-08T16:33:10.275Z,13.93
2024-02-08T16:35:58.927Z,15.10
2024-02-08T16:38:29.737Z,20.77
2024-02-08T16:41:06.168Z,21.35
2024-02-08T16:43:34.722Z,17.10
2024-02-08T16:46:12.605Z,16.00
2024-02-08T16:48:46.406Z,15.63
2024-02-08T16:51:18.082Z,18.73
2024-02-08T16:53:51.208Z,19.73
2024-02-08T16:56:22.759Z,17.10
2024-02-08T16:58:57.481Z,21.92
2024-02-08T17:01:30.274Z,19.75
2024-02-08T17:04:25.098Z,20.55
2024-02-08T17:07:04.177Z,20.85
2024-02-08T17:09:51.092Z,20.17
2024-02-08T17:12:29.307Z,21.17
2024-02-08T17:14:58.438Z,22.02
2024-02-08T17:17:36.737Z,28.00
2024-02-08T17:20:24.027Z,28.55
2024-02-08T17:22:52.785Z,20.30
2024-02-08T17:25:19.570Z,23.00
2024-02-08T17:28:15.516Z,20.35
2024-02-08T17:31:00.951Z,19.25
2024-02-08T17:33:27.437Z,21.05
2024-02-08T17:35:56.615Z,20.52
2024-02-08T17:38:29.893Z,17.73
2024-02-08T17:40:56.806Z,20.80
2024-02-08T17:43:24.992Z,16.70
2024-02-08T17:46:04.375Z,14.82
2024-02-08T17:48:33.803Z,18.40
2024-02-08T17:51:08.841Z,14.77
2024-02-08T17:53:36.567Z,14.40
2024-02-08T17:56:09.121Z,17.00
2024-02-08T17:58:36.859Z,21.85
2024-02-08T18:01:08.315Z,18.08
2024-02-08T18:03:35.129Z,15.35
2024-02-08T18:06:05.786Z,17.42
2024-02-08T18:08:32.433Z,17.48
2024-02-08T18:10:58.982Z,22.65
2024-02-08T18:13:27.834Z,12.65
2024-02-08T18:15:58.637Z,19.55
2024-02-08T18:18:25.513Z,17.95
2024-02-08T18:21:05.865Z,19.13
2024-02-08T18:23:36.722Z,19.50
2024-02-08T18:26:12.407Z,18.73
2024-02-08T18:28:41.201Z,16.77
2024-02-08T18:31:10.967Z,18.45
2024-02-08T18:33:39.002Z,22.02
2024-02-08T18:36:09.402Z,24.20
2024-02-08T18:38:36.129Z,19.52
2024-02-08T18:41:02.995Z,19.20
2024-02-08T18:43:29.737Z,17.77
2024-02-08T18:45:57.275Z,23.65
2024-02-08T18:48:24.525Z,19.10
2024-02-08T18:50:51.587Z,23.27
2024-02-08T18:53:25.419Z,19.55
2024-02-08T18:58:24.608Z,25.40
2024-02-08T19:00:56.231Z,26.33
2024-02-08T19:03:31.934Z,21.27
2024-02-08T19:06:00.933Z,23.27
2024-02-08T19:08:31.084Z,23.20
2024-02-08T19:11:01.750Z,23.42
2024-02-08T19:13:30.964Z,24.67
2024-02-08T19:16:15.421Z,30.00
2024-02-08T19:18:46.467Z,24.48
2024-02-08T19:21:26.649Z,24.83
2024-02-08T19:23:57.176Z,25.98
2024-02-08T19:26:26.115Z,26.88
2024-02-08T19:28:54.253Z,26.73
2024-02-08T19:31:24.813Z,25.70
2024-02-08T19:33:57.596Z,23.45
2024-02-08T19:36:24.888Z,22.60
2024-02-08T19:38:54.975Z,23.25
2024-02-08T19:41:22.444Z,27.83
2024-02-08T19:43:49.441Z,21.98
2024-02-08T19:46:20.513Z,19.95
2024-02-08T19:48:53.811Z,24.02
2024-02-08T19:51:26.095Z,26.83
2024-02-08T19:53:56.043Z,23.85
2024-02-08T19:56:23.971Z,26.92
2024-02-08T19:58:53.646Z,23.95
2024-02-08T20:01:25.235Z,27.90
2024-02-08T20:03:53.697Z,19.10
2024-02-08T20:06:28.125Z,24.52
2024-02-08T20:08:58.183Z,20.75
2024-02-08T20:11:27.501Z,24.00
2024-02-08T20:14:00.339Z,36.92
2024-02-08T20:16:32.397Z,24.40
2024-02-08T20:19:00.752Z,19.30
2024-02-08T20:21:28.448Z,18.40
2024-02-08T20:23:55.893Z,24.92
2024-02-08T20:26:24.945Z,28.67
2024-02-08T20:28:55.414Z,21.65
2024-02-08T20:31:23.460Z,22.42
2024-02-08T20:33:50.713Z,24.70
2024-02-08T20:36:17.822Z,26.48
2024-02-08T20:38:44.411Z,24.88
2024-02-08T20:41:12.170Z,22.70
2024-02-08T20:43:44.821Z,23.90
2024-02-08T20:46:12.906Z,21.88
2024-02-08T20:48:41.314Z,23.58
2024-02-08T20:51:08.601Z,29.90
2024-02-08T20:53:36.506Z,22.48
2024-02-08T20:56:05.161Z,25.90
2024-02-08T20:58:31.797Z,25.88
2024-02-08T21:01:02.981Z,20.52
2024-02-08T21:03:29.660Z,27.75
2024-02-08T21:05:56.660Z,24.27
2024-02-08T21:08:26.240Z,25.27
2024-02-08T21:10:58.367Z,21.25
2024-02-08T21:13:26.227Z,27.95
2024-02-08T21:15:53.478Z,20.65
2024-02-08T21:18:20.355Z,27.65
2024-02-08T21:20:47.577Z,23.10
2024-02-08T21:23:14.568Z,27.85
2024-02-08T21:25:42.091Z,29.20
2024-02-08T21:28:12.149Z,20.63
2024-02-08T21:30:43.222Z,23.45
2024-02-08T21:33:11.764Z,23.13
2024-02-08T21:35:38.452Z,33.25
2024-02-08T21:38:09.005Z,29.02
2024-02-08T21:40:36.092Z,26.63
2024-02-08T21:43:09.299Z,27.30
2024-02-08T21:45:37.196Z,31.33
2024-02-08T21:48:04.103Z,26.35
2024-02-08T21:50:32.046Z,19.38
2024-02-08T21:52:58.836Z,27.17
2024-02-08T21:55:26.158Z,27.90
2024-02-08T21:57:52.621Z,25.25
2024-02-08T22:00:19.897Z,23.63
2024-02-08T22:02:47.977Z,21.30
2024-02-08T22:05:18.996Z,23.75
2024-02-08T22:07:48.641Z,28.15
2024-02-08T22:10:15.422Z,22.88
2024-02-08T22:12:46.218Z,20.67
2024-02-08T22:15:19.295Z,30.27
2024-02-08T22:17:48.040Z,19.63
2024-02-08T22:20:15.176Z,23.40
2024-02-08T22:22:42.291Z,25.35
2024-02-08T22:25:09.419Z,23.77
2024-02-08T22:27:36.113Z,16.83
2024-02-08T22:30:04.491Z,24.75
2024-02-08T22:32:31.044Z,23.10
2024-02-08T22:34:57.977Z,23.48
2024-02-08T22:37:24.722Z,25.08
2024-02-08T22:39:53.320Z,23.92
2024-02-08T22:42:20.013Z,30.40
2024-02-08T22:44:46.647Z,24.15
2024-02-08T22:47:13.615Z,31.42
2024-02-08T22:49:40.262Z,27.38
2024-02-08T22:52:07.285Z,23.23
2024-02-08T22:54:34.104Z,20.92
2024-02-08T22:57:00.473Z,22.98
2024-02-08T22:59:28.875Z,19.42
2024-02-08T23:01:55.497Z,26.00
2024-02-08T23:04:22.496Z,27.15
2024-02-08T23:06:49.068Z,28.88
2024-02-08T23:09:18.346Z,31.42
2024-02-08T23:11:45.718Z,23.27
2024-02-08T23:14:14.738Z,38.30
2024-02-08T23:16:41.280Z,25.35
2024-02-08T23:19:12.679Z,25.48
2024-02-08T23:21:41.284Z,22.80
2024-02-08T23:24:11.371Z,27.60
2024-02-08T23:26:38.302Z,22.70
2024-02-08T23:29:05.267Z,26.80
2024-02-08T23:31:37.215Z,23.83
2024-02-08T23:34:04.626Z,35.92
2024-02-08T23:36:34.264Z,26.80
2024-02-08T23:39:01.259Z,25.92
2024-02-08T23:41:30.951Z,29.02
2024-02-08T23:44:00.635Z,43.40
2024-02-08T23:46:29.084Z,27.77
2024-02-08T23:48:59.253Z,30.63
2024-02-08T23:51:26.309Z,35.97
2024-02-08T23:53:53.070Z,26.08
2024-02-08T23:56:20.355Z,35.00
2024-02-08T23:58:47.864Z,30.52
